Terminal Aerodrome Forecast
Issued by NWS

Home | Current Version | Previous Version | Text Only | Print | Product List | Glossary On
Versions: 1 2 3 4 5 6 7 8 9 10 11 12 13 14 15 16 17 18
705
FTUS46 KHNX 072320
TAFMCE
TAF
KMCE 072320Z 0800/0824 VRB03KT P6SM SKC
     FM080500 00000KT 4SM BR SKC
      TEMPO 0808/0812 2SM BR
     FM081200 00000KT 2SM BR SKC
      TEMPO 0813/0817 1/2SM FG VV002
     FM081800 VRB03KT 5SM HZ SKC
     FM082100 VRB03KT P6SM SKC=

USA.gov is the U.S. government's official web portal to all federal, state and local government web resources and services.